Snoqualmie Pass
Mt. Washington
Latest observation 09/01 16:00 PDT
| Time (PDT) | Temp °F 4340' | Dir ° 4340' | RH % 4340' | SR W/m² 4340' |
|---|---|---|---|---|
| 09/01 16:00 | 49 | 201 | 89 | 11 |
| 09/01 15:00 | 49 | 203 | 87 | 11 |
| 09/01 14:00 | 49 | 195 | 83 | 11 |
| 09/01 13:00 | 50 | 193 | 78 | 11 |
| 09/01 12:00 | 58 | 195 | 74 | 11 |
| 09/01 11:00 | 55 | 160 | 80 | 11 |
| 09/01 10:00 | 55 | 205 | 83 | 11 |
| 09/01 09:00 | 53 | 198 | 84 | 11 |
| 09/01 08:00 | 52 | 175 | 86 | 10 |
| 09/01 07:00 | 51 | 176 | 90 | 3 |
| 09/01 06:00 | 51 | 188 | 90 | 0 |
| 09/01 05:00 | 52 | 198 | 88 | 0 |
| 09/01 04:00 | 55 | 179 | 66 | 0 |
| 09/01 03:00 | 57 | 171 | 47 | 0 |
| 09/01 02:00 | 59 | 91 | 43 | 0 |
| 09/01 01:00 | 59 | 118 | 42 | 0 |
| 09/01 00:00 | 60 | 118 | 41 | 0 |
| 08/31 23:00 | 59 | 140 | 42 | 0 |
| 08/31 22:00 | 59 | 88 | 46 | 0 |
| 08/31 21:00 | 59 | 46 | 57 | 0 |
| 08/31 20:00 | 61 | 160 | 55 | 7 |
| 08/31 19:00 | 65 | 180 | 46 | 10 |
| 08/31 18:00 | 65 | 140 | 42 | 10 |
| 08/31 17:00 | 67 | 154 | 41 | 10 |

